createdAt,value
2023-05-08T00:02:52.341Z,2.05
2023-05-08T00:07:55.574Z,2.05
2023-05-08T00:12:57.505Z,1.60
2023-05-08T00:17:59.251Z,2.63
2023-05-08T00:23:02.306Z,2.67
2023-05-08T00:28:04.030Z,3.42
2023-05-08T00:33:05.702Z,2.58
2023-05-08T00:38:08.785Z,3.10
2023-05-08T00:43:10.407Z,3.53
2023-05-08T00:48:12.436Z,2.90
2023-05-08T00:53:16.640Z,3.25
2023-05-08T00:58:19.456Z,3.40
2023-05-08T01:03:22.308Z,3.70
2023-05-08T01:08:25.435Z,4.18
2023-05-08T01:13:35.834Z,2.90
2023-05-08T01:18:45.731Z,3.75
2023-05-08T01:24:19.138Z,4.13
2023-05-08T01:29:58.040Z,3.28
2023-05-08T01:35:09.980Z,4.00
2023-05-08T01:40:21.613Z,4.32
2023-05-08T01:45:29.085Z,4.32
2023-05-08T01:50:36.490Z,4.50
2023-05-08T01:55:40.221Z,4.22
2023-05-08T02:00:44.119Z,4.13
2023-05-08T02:05:49.182Z,4.60
2023-05-08T02:10:52.065Z,3.90
2023-05-08T02:15:56.121Z,5.35
2023-05-08T02:21:00.767Z,4.78
2023-05-08T02:26:04.672Z,4.50
2023-05-08T02:31:07.958Z,4.57
2023-05-08T02:36:13.696Z,4.70
2023-05-08T02:41:18.046Z,4.13
2023-05-08T02:46:25.562Z,3.97
2023-05-08T02:51:43.838Z,3.90
2023-05-08T02:56:56.042Z,4.50
2023-05-08T03:02:06.706Z,3.90
2023-05-08T03:07:10.670Z,5.15
2023-05-08T03:12:15.048Z,4.57
2023-05-08T03:17:18.773Z,4.22
2023-05-08T03:22:23.914Z,4.30
2023-05-08T03:27:28.717Z,3.83
2023-05-08T03:32:33.131Z,4.10
2023-05-08T03:37:36.411Z,4.75
2023-05-08T03:42:40.028Z,4.35
2023-05-08T03:47:44.417Z,4.65
2023-05-08T03:52:48.479Z,5.00
2023-05-08T03:57:57.801Z,4.13
2023-05-08T04:03:13.903Z,3.83
2023-05-08T04:08:20.161Z,4.80
2023-05-08T04:13:28.308Z,4.28
2023-05-08T04:18:31.236Z,4.20
2023-05-08T04:23:36.210Z,4.13
2023-05-08T04:28:38.745Z,5.18
2023-05-08T04:33:45.085Z,4.40
2023-05-08T04:38:48.175Z,5.28
2023-05-08T04:43:50.046Z,5.05
2023-05-08T04:48:51.733Z,4.25
2023-05-08T04:53:54.724Z,4.10
2023-05-08T04:58:56.373Z,4.43
2023-05-08T05:03:58.072Z,4.63
2023-05-08T05:09:03.249Z,5.07
2023-05-08T05:14:04.895Z,5.38
2023-05-08T05:19:06.594Z,5.22
2023-05-08T05:24:09.743Z,4.93
2023-05-08T05:29:11.545Z,4.35
2023-05-08T05:34:13.254Z,4.07
2023-05-08T05:39:16.295Z,4.55
2023-05-08T05:44:23.103Z,4.75
2023-05-08T05:49:28.304Z,4.60
2023-05-08T05:54:36.289Z,5.60
2023-05-08T05:59:40.486Z,3.95
2023-05-08T06:04:46.220Z,4.68
2023-05-08T06:09:55.097Z,4.55
2023-05-08T06:15:09.980Z,4.20
2023-05-08T06:20:12.348Z,3.92
2023-05-08T06:25:15.547Z,4.38
2023-05-08T06:30:17.290Z,4.07
2023-05-08T06:35:18.976Z,3.78
2023-05-08T06:40:22.415Z,3.97
2023-05-08T06:45:24.133Z,4.78
2023-05-08T06:50:25.854Z,4.43
2023-05-08T06:55:28.969Z,4.13
2023-05-08T07:00:30.642Z,4.40
2023-05-08T07:05:32.339Z,4.13
2023-05-08T07:10:35.448Z,4.30
2023-05-08T07:15:40.065Z,3.70
2023-05-08T07:20:41.718Z,4.03
2023-05-08T07:25:44.730Z,4.57
2023-05-08T07:30:46.430Z,4.90
2023-05-08T07:35:50.522Z,3.92
2023-05-08T07:40:53.504Z,3.95
2023-05-08T07:45:55.120Z,4.78
2023-05-08T07:50:56.805Z,4.10
2023-05-08T07:55:59.783Z,3.85
2023-05-08T08:01:01.426Z,3.15
2023-05-08T08:06:03.365Z,3.20
2023-05-08T08:11:06.749Z,3.55
2023-05-08T08:16:08.434Z,3.80
2023-05-08T08:21:10.166Z,3.60
2023-05-08T08:26:14.653Z,3.75
2023-05-08T08:31:19.806Z,3.58
2023-05-08T08:36:23.907Z,5.30
2023-05-08T08:41:26.934Z,3.70
2023-05-08T08:46:28.665Z,3.50
2023-05-08T08:51:33.367Z,3.92
2023-05-08T08:56:40.859Z,3.40
2023-05-08T09:07:15.071Z,3.53
2023-05-08T09:12:24.741Z,3.13
2023-05-08T09:17:37.488Z,3.42
2023-05-08T09:22:47.064Z,4.25
2023-05-08T09:27:54.859Z,4.45
2023-05-08T09:33:05.697Z,4.25
2023-05-08T09:38:10.563Z,3.78
2023-05-08T09:43:25.153Z,4.80
2023-05-08T09:48:37.184Z,4.32
2023-05-08T09:53:39.077Z,4.85
2023-05-08T09:58:46.564Z,4.50
2023-05-08T10:09:10.020Z,4.68
2023-05-08T10:14:18.964Z,3.97
2023-05-08T10:19:28.225Z,4.78
2023-05-08T10:24:33.537Z,4.10
2023-05-08T10:29:47.217Z,4.07
2023-05-08T10:35:00.306Z,3.65
2023-05-08T10:40:03.110Z,4.20
2023-05-08T10:45:07.811Z,3.80
2023-05-08T10:50:22.341Z,3.63
2023-05-08T10:55:32.512Z,3.60
2023-05-08T11:01:16.364Z,4.18
2023-05-08T11:06:38.852Z,4.30
2023-05-08T11:11:45.102Z,4.45
2023-05-08T11:17:13.587Z,4.30
2023-05-08T11:22:26.546Z,4.63
2023-05-08T11:28:20.463Z,4.18
2023-05-08T11:33:39.895Z,4.63
2023-05-08T11:39:18.102Z,3.92
2023-05-08T11:44:41.862Z,4.88
2023-05-08T12:00:30.540Z,4.43
2023-05-08T12:05:36.646Z,4.22
2023-05-08T12:10:41.460Z,4.75
2023-05-08T12:15:43.469Z,4.10
2023-05-08T12:20:46.758Z,4.38
2023-05-08T12:25:53.789Z,4.53
2023-05-08T12:30:56.917Z,4.47
2023-05-08T12:36:00.960Z,4.97
2023-05-08T12:41:03.266Z,4.40
2023-05-08T12:46:12.681Z,4.95
2023-05-08T12:51:15.858Z,5.22
2023-05-08T12:56:22.093Z,5.43
2023-05-08T13:01:25.503Z,5.35
2023-05-08T13:06:28.995Z,4.88
2023-05-08T13:11:31.690Z,5.22
2023-05-08T13:16:42.331Z,4.93
2023-05-08T13:21:45.685Z,5.40
2023-05-08T13:26:47.366Z,5.30
2023-05-08T13:31:49.089Z,5.13
2023-05-08T13:36:52.261Z,5.30
2023-05-08T13:41:53.955Z,5.55
2023-05-08T13:46:55.668Z,5.32
2023-05-08T13:51:58.734Z,6.30
2023-05-08T13:57:01.206Z,5.00
2023-05-08T14:02:02.949Z,5.43
2023-05-08T14:07:06.466Z,5.90
2023-05-08T14:12:08.196Z,5.47
2023-05-08T14:17:09.982Z,5.70
2023-05-08T14:22:13.091Z,5.35
2023-05-08T14:27:14.812Z,4.47
2023-05-08T14:32:16.489Z,5.40
2023-05-08T14:37:19.944Z,4.75
2023-05-08T14:42:23.613Z,4.80
2023-05-08T14:47:25.736Z,4.55
2023-05-08T14:52:28.778Z,3.47
2023-05-08T14:57:30.414Z,3.88
2023-05-08T15:02:32.153Z,2.88
2023-05-08T15:07:45.636Z,3.05
2023-05-08T15:12:47.414Z,3.00
2023-05-08T15:17:49.103Z,2.95
2023-05-08T15:22:54.097Z,3.92
2023-05-08T15:27:56.780Z,3.38
2023-05-08T15:32:59.311Z,3.70
2023-05-08T15:38:05.138Z,3.40
2023-05-08T15:43:06.836Z,4.75
2023-05-08T15:48:08.585Z,4.53
2023-05-08T15:53:11.624Z,4.22
2023-05-08T15:58:13.246Z,4.07
2023-05-08T16:03:14.978Z,3.90
2023-05-08T16:08:18.802Z,3.95
2023-05-08T16:13:20.429Z,3.95
2023-05-08T16:18:22.156Z,3.50
2023-05-08T16:23:25.284Z,3.97
2023-05-08T16:28:26.938Z,3.85
2023-05-08T16:33:28.675Z,3.70
2023-05-08T16:38:31.798Z,3.33
2023-05-08T16:43:33.483Z,3.90
2023-05-08T16:48:35.247Z,3.67
2023-05-08T16:53:38.286Z,2.97
2023-05-08T16:58:40.213Z,3.28
2023-05-08T17:03:43.165Z,3.83
2023-05-08T17:08:47.594Z,3.40
2023-05-08T17:13:49.231Z,3.28
2023-05-08T17:18:50.857Z,4.20
2023-05-08T17:23:53.885Z,3.70
2023-05-08T17:28:55.522Z,3.33
2023-05-08T17:33:57.227Z,3.00
2023-05-08T17:39:03.061Z,3.15
2023-05-08T17:44:04.969Z,3.88
2023-05-08T17:49:06.638Z,3.30
2023-05-08T17:54:09.627Z,3.22
2023-05-08T17:59:11.435Z,3.58
2023-05-08T18:04:13.196Z,3.67
2023-05-08T18:09:16.258Z,4.45
2023-05-08T18:14:17.828Z,4.28
2023-05-08T18:19:19.474Z,4.20
2023-05-08T18:24:22.507Z,4.68
2023-05-08T18:29:24.161Z,3.80
2023-05-08T18:34:25.829Z,3.95
2023-05-08T18:39:28.969Z,4.68
2023-05-08T18:44:30.680Z,4.30
2023-05-08T18:49:32.298Z,4.80
2023-05-08T18:54:35.328Z,4.20
2023-05-08T18:59:37.170Z,4.47
2023-05-08T19:04:39.880Z,3.95
2023-05-08T19:09:42.983Z,3.53
2023-05-08T19:14:47.539Z,4.18
2023-05-08T19:19:49.911Z,4.80
2023-05-08T19:24:53.043Z,3.80
2023-05-08T19:29:55.174Z,4.35
2023-05-08T19:34:56.821Z,4.60
2023-05-08T19:39:59.892Z,4.30
2023-05-08T19:45:01.542Z,4.80
2023-05-08T19:50:05.111Z,4.35
2023-05-08T19:55:08.816Z,4.88
2023-05-08T20:00:11.784Z,4.30
2023-05-08T20:05:31.137Z,4.97
2023-05-08T20:10:34.211Z,4.13
2023-05-08T20:15:36.112Z,5.05
2023-05-08T20:20:37.814Z,4.80
2023-05-08T20:25:41.245Z,4.50
2023-05-08T20:30:42.943Z,4.55
2023-05-08T20:35:44.813Z,4.10
2023-05-08T20:40:47.962Z,4.28
2023-05-08T20:45:49.599Z,4.50
2023-05-08T20:50:51.334Z,4.32
2023-05-08T20:56:01.176Z,4.40
2023-05-08T21:01:03.475Z,4.63
2023-05-08T21:06:05.378Z,5.72
2023-05-08T21:11:08.480Z,4.35
2023-05-08T21:16:10.235Z,4.47
2023-05-08T21:21:15.694Z,3.88
2023-05-08T21:31:20.570Z,6.05
2023-05-08T21:36:22.367Z,4.97
2023-05-08T21:41:25.374Z,5.25
2023-05-08T21:46:27.092Z,3.72
2023-05-08T21:51:28.770Z,3.28
2023-05-08T21:56:31.726Z,4.32
2023-05-08T22:01:33.515Z,4.18
2023-05-08T22:06:35.216Z,3.85
2023-05-08T22:11:38.264Z,4.88
2023-05-08T22:16:39.969Z,5.00
2023-05-08T22:21:42.310Z,4.57
2023-05-08T22:26:45.376Z,4.72
2023-05-08T22:31:47.014Z,3.83
2023-05-08T22:36:48.707Z,4.80
2023-05-08T22:41:51.772Z,4.57
2023-05-08T22:46:53.478Z,3.90
2023-05-08T22:51:55.265Z,3.97
2023-05-08T22:56:58.336Z,3.75
2023-05-08T23:01:59.922Z,4.60
2023-05-08T23:07:02.010Z,3.13
2023-05-08T23:12:05.679Z,4.97
2023-05-08T23:17:07.310Z,3.83
2023-05-08T23:22:09.038Z,4.40
2023-05-08T23:27:12.090Z,3.33
2023-05-08T23:32:14.468Z,4.55
2023-05-08T23:37:16.107Z,3.70
2023-05-08T23:42:20.331Z,3.65
2023-05-08T23:47:22.004Z,4.13
2023-05-08T23:52:23.618Z,4.13
2023-05-08T23:57:26.773Z,3.83
